createdAt,value
2023-02-08T00:00:18.280Z,2.69
2023-02-08T00:03:24.603Z,2.73
2023-02-08T00:06:29.292Z,2.76
2023-02-08T00:09:35.820Z,2.76
2023-02-08T00:12:42.168Z,2.81
2023-02-08T00:15:47.501Z,2.83
2023-02-08T00:18:53.693Z,2.81
2023-02-08T00:21:59.916Z,2.83
2023-02-08T00:25:06.506Z,2.85
2023-02-08T00:28:16.355Z,2.88
2023-02-08T00:31:22.556Z,2.90
2023-02-08T00:34:28.857Z,2.92
2023-02-08T00:37:33.408Z,2.93
2023-02-08T00:40:39.843Z,2.91
2023-02-08T00:43:46.174Z,2.94
2023-02-08T00:46:52.454Z,2.95
2023-02-08T00:49:56.861Z,2.96
2023-02-08T00:53:03.041Z,2.96
2023-02-08T00:56:11.366Z,2.98
2023-02-08T00:59:17.709Z,3.00
2023-02-08T01:02:22.198Z,3.02
2023-02-08T01:05:28.362Z,3.01
2023-02-08T01:08:34.605Z,3.04
2023-02-08T01:11:39.308Z,3.05
2023-02-08T01:14:45.691Z,3.03
2023-02-08T01:17:56.646Z,3.05
2023-02-08T01:21:09.240Z,3.06
2023-02-08T01:24:15.452Z,3.05
2023-02-08T01:27:21.708Z,3.05
2023-02-08T01:30:26.320Z,3.05
2023-02-08T01:33:32.631Z,3.03
2023-02-08T01:36:37.478Z,3.04
2023-02-08T01:39:43.603Z,3.03
2023-02-08T01:42:49.842Z,3.04
2023-02-08T01:45:54.413Z,3.03
2023-02-08T01:49:04.022Z,3.00
2023-02-08T01:52:14.106Z,3.03
2023-02-08T01:55:26.328Z,3.05
2023-02-08T01:58:37.823Z,3.07
2023-02-08T02:01:46.581Z,3.09
2023-02-08T02:04:54.654Z,3.10
2023-02-08T02:08:01.841Z,3.11
2023-02-08T02:11:08.395Z,3.11
2023-02-08T02:14:15.942Z,3.12
2023-02-08T02:17:22.924Z,3.13
2023-02-08T02:20:40.088Z,3.13
2023-02-08T02:24:27.723Z,3.12
2023-02-08T02:27:48.900Z,3.13
2023-02-08T02:31:22.901Z,3.12
2023-02-08T02:34:38.441Z,3.12
2023-02-08T02:38:10.376Z,3.13
2023-02-08T02:41:38.724Z,3.13
2023-02-08T02:44:53.866Z,3.14
2023-02-08T02:48:07.262Z,3.15
2023-02-08T02:51:18.685Z,3.15
2023-02-08T02:54:30.953Z,3.15
2023-02-08T02:57:39.116Z,3.15
2023-02-08T03:00:46.226Z,3.16
2023-02-08T03:03:53.667Z,3.17
2023-02-08T03:07:10.397Z,3.16
2023-02-08T03:10:33.154Z,3.16
2023-02-08T03:13:52.513Z,3.15
2023-02-08T03:17:19.794Z,3.11
2023-02-08T03:20:31.380Z,3.08
2023-02-08T03:23:43.009Z,3.06
2023-02-08T03:26:57.529Z,3.04
2023-02-08T03:30:11.067Z,3.05
2023-02-08T03:33:21.426Z,3.07
2023-02-08T03:36:33.147Z,3.09
2023-02-08T03:39:41.543Z,3.08
2023-02-08T03:42:50.208Z,3.06
2023-02-08T03:46:03.532Z,3.02
2023-02-08T03:49:14.545Z,2.98
2023-02-08T03:52:20.868Z,2.97
2023-02-08T03:55:27.303Z,2.97
2023-02-08T03:58:39.825Z,2.91
2023-02-08T04:01:50.258Z,2.89
2023-02-08T04:04:58.298Z,2.89
2023-02-08T04:08:04.735Z,2.90
2023-02-08T04:11:11.340Z,2.87
2023-02-08T04:14:17.658Z,2.86
2023-02-08T04:17:22.724Z,2.84
2023-02-08T04:20:29.108Z,2.81
2023-02-08T04:23:35.337Z,2.84
2023-02-08T04:26:41.594Z,2.86
2023-02-08T04:29:46.135Z,2.86
2023-02-08T04:32:52.295Z,2.80
2023-02-08T04:35:58.459Z,2.82
2023-02-08T04:39:04.964Z,2.83
2023-02-08T04:42:11.397Z,2.85
2023-02-08T04:45:17.605Z,2.87
2023-02-08T04:48:24.118Z,2.86
2023-02-08T04:51:30.387Z,2.85
2023-02-08T04:54:35.200Z,2.87
2023-02-08T04:57:41.365Z,2.88
2023-02-08T05:00:46.081Z,2.94
2023-02-08T05:03:52.350Z,2.95
2023-02-08T05:06:56.959Z,2.98
2023-02-08T05:10:03.682Z,2.98
2023-02-08T05:13:10.021Z,2.99
2023-02-08T05:16:14.527Z,2.98
2023-02-08T05:19:20.823Z,2.94
2023-02-08T05:22:25.329Z,2.95
2023-02-08T05:25:31.594Z,2.91
2023-02-08T05:28:36.152Z,2.91
2023-02-08T05:31:42.648Z,2.87
2023-02-08T05:34:49.149Z,2.89
2023-02-08T05:37:55.383Z,2.91
2023-02-08T05:41:01.691Z,2.91
2023-02-08T05:44:06.384Z,2.88
2023-02-08T05:47:12.712Z,2.82
2023-02-08T05:50:17.507Z,2.76
2023-02-08T05:53:23.992Z,2.71
2023-02-08T05:56:30.559Z,2.73
2023-02-08T05:59:36.736Z,2.72
2023-02-08T06:02:43.062Z,2.71
2023-02-08T06:05:47.659Z,2.63
2023-02-08T06:08:53.886Z,2.51
2023-02-08T06:12:00.123Z,2.44
2023-02-08T06:15:04.959Z,2.42
2023-02-08T06:18:11.834Z,2.41
2023-02-08T06:21:18.106Z,2.48
2023-02-08T06:24:25.412Z,2.54
2023-02-08T06:27:31.721Z,2.60
2023-02-08T06:30:36.228Z,2.66
2023-02-08T06:33:42.452Z,2.67
2023-02-08T06:36:48.725Z,2.71
2023-02-08T06:39:53.302Z,2.73
2023-02-08T06:42:59.465Z,2.71
2023-02-08T06:46:08.653Z,2.75
2023-02-08T06:49:15.505Z,2.79
2023-02-08T06:52:22.569Z,2.82
2023-02-08T06:55:28.812Z,2.84
2023-02-08T06:58:33.288Z,2.85
2023-02-08T07:01:39.605Z,2.86
2023-02-08T07:04:44.092Z,2.93
2023-02-08T07:07:50.352Z,2.97
2023-02-08T07:10:54.939Z,3.05
2023-02-08T07:14:01.135Z,3.08
2023-02-08T07:17:07.401Z,3.15
2023-02-08T07:20:13.086Z,3.20
2023-02-08T07:23:19.373Z,3.21
2023-02-08T07:26:23.857Z,3.26
2023-02-08T07:29:32.345Z,3.26
2023-02-08T07:32:38.633Z,3.32
2023-02-08T07:35:43.290Z,3.38
2023-02-08T07:38:49.526Z,3.40
2023-02-08T07:41:56.134Z,3.41
2023-02-08T07:45:02.300Z,3.44
2023-02-08T07:48:08.639Z,3.47
2023-02-08T07:51:15.655Z,3.45
2023-02-08T07:54:21.913Z,3.41
2023-02-08T07:57:28.273Z,3.33
2023-02-08T08:00:32.922Z,3.30
2023-02-08T08:03:39.220Z,3.29
2023-02-08T08:06:43.779Z,3.33
2023-02-08T08:09:50.505Z,3.34
2023-02-08T08:12:56.788Z,3.42
2023-02-08T08:16:01.389Z,3.42
2023-02-08T08:19:08.013Z,3.36
2023-02-08T08:22:14.335Z,3.40
2023-02-08T08:25:18.946Z,3.48
2023-02-08T08:28:25.337Z,3.54
2023-02-08T08:31:32.159Z,3.64
2023-02-08T08:34:38.357Z,3.76
2023-02-08T08:37:44.540Z,3.89
2023-02-08T08:40:50.813Z,4.01
2023-02-08T08:43:55.540Z,4.17
2023-02-08T08:47:02.245Z,4.32
2023-02-08T08:50:09.589Z,4.42
2023-02-08T08:53:15.920Z,4.47
2023-02-08T08:56:20.464Z,4.53
2023-02-08T08:59:27.154Z,4.61
2023-02-08T09:02:33.397Z,4.62
2023-02-08T09:05:39.668Z,4.62
2023-02-08T09:08:46.008Z,4.60
2023-02-08T09:11:50.913Z,4.62
2023-02-08T09:14:57.167Z,4.63
2023-02-08T09:18:03.336Z,4.67
2023-02-08T09:21:12.120Z,4.71
2023-02-08T09:24:19.441Z,4.73
2023-02-08T09:27:25.602Z,4.66
2023-02-08T09:30:31.834Z,4.63
2023-02-08T09:33:38.273Z,4.55
2023-02-08T09:36:44.891Z,4.52
2023-02-08T09:39:51.175Z,4.53
2023-02-08T09:43:09.764Z,4.63
2023-02-08T09:46:21.539Z,4.73
2023-02-08T09:49:33.530Z,4.83
2023-02-08T09:52:43.837Z,4.86
2023-02-08T09:55:53.130Z,4.90
2023-02-08T09:59:00.598Z,4.96
2023-02-08T10:02:18.724Z,5.08
2023-02-08T10:05:28.569Z,5.16
2023-02-08T10:08:36.345Z,5.12
2023-02-08T10:11:58.342Z,5.05
2023-02-08T10:15:14.320Z,5.00
2023-02-08T10:18:34.591Z,4.93
2023-02-08T10:21:53.725Z,4.89
2023-02-08T10:25:17.579Z,4.76
2023-02-08T10:28:35.409Z,4.74
2023-02-08T10:32:02.652Z,4.78
2023-02-08T10:35:14.321Z,4.87
2023-02-08T10:38:44.024Z,4.97
2023-02-08T10:41:52.341Z,5.03
2023-02-08T10:45:19.056Z,4.90
2023-02-08T10:48:46.470Z,4.78
2023-02-08T10:51:54.264Z,4.76
2023-02-08T10:55:01.194Z,4.73
2023-02-08T10:58:08.323Z,4.70
2023-02-08T11:01:14.730Z,4.70
2023-02-08T11:04:21.704Z,4.71
2023-02-08T11:07:28.252Z,4.79
2023-02-08T11:10:36.767Z,4.86
2023-02-08T11:13:44.617Z,5.00
2023-02-08T11:16:55.805Z,5.18
2023-02-08T11:20:02.654Z,5.13
2023-02-08T11:23:23.896Z,4.59
2023-02-08T11:26:35.724Z,4.11
2023-02-08T11:29:41.881Z,3.80
2023-02-08T11:32:49.477Z,3.57
2023-02-08T11:36:07.671Z,3.44
2023-02-08T11:39:24.410Z,3.31
2023-02-08T11:42:36.124Z,3.20
2023-02-08T11:45:46.762Z,3.13
2023-02-08T11:48:55.378Z,3.11
2023-02-08T11:52:01.738Z,3.13
2023-02-08T11:55:24.931Z,3.18
2023-02-08T11:58:31.542Z,3.24
2023-02-08T12:01:39.779Z,3.30
2023-02-08T12:04:46.077Z,3.40
2023-02-08T12:08:07.806Z,3.47
2023-02-08T12:11:25.301Z,3.55
2023-02-08T12:14:46.997Z,3.59
2023-02-08T12:18:15.225Z,3.56
2023-02-08T12:21:26.820Z,3.50
2023-02-08T12:24:42.645Z,3.55
2023-02-08T12:27:56.285Z,3.62
2023-02-08T12:31:08.869Z,3.61
2023-02-08T12:34:21.903Z,3.59
2023-02-08T12:37:54.108Z,3.66
2023-02-08T12:41:08.544Z,3.71
2023-02-08T12:44:24.529Z,3.75
2023-02-08T12:47:49.269Z,3.80
2023-02-08T12:51:07.103Z,3.84
2023-02-08T12:54:17.149Z,3.88
2023-02-08T12:57:26.062Z,3.92
2023-02-08T13:00:38.454Z,3.96
2023-02-08T13:03:50.398Z,4.03
2023-02-08T13:07:03.475Z,4.07
2023-02-08T13:10:17.323Z,4.13
2023-02-08T13:13:27.009Z,4.17
2023-02-08T13:16:39.556Z,4.09
2023-02-08T13:20:00.214Z,4.03
2023-02-08T13:23:14.153Z,4.02
2023-02-08T13:26:24.857Z,4.03
2023-02-08T13:29:33.626Z,4.03
2023-02-08T13:32:44.310Z,4.00
2023-02-08T13:35:54.992Z,3.91
2023-02-08T13:39:03.505Z,3.85
2023-02-08T13:42:21.664Z,3.74
2023-02-08T13:45:34.329Z,3.60
2023-02-08T13:48:53.122Z,3.47
2023-02-08T13:51:59.884Z,3.33
2023-02-08T13:55:46.110Z,3.24
2023-02-08T13:59:05.831Z,3.14
2023-02-08T14:02:26.910Z,3.08
2023-02-08T14:05:48.543Z,3.00
2023-02-08T14:09:02.156Z,2.94
2023-02-08T14:12:14.512Z,2.87
2023-02-08T14:15:37.860Z,2.77
2023-02-08T14:18:55.497Z,2.71
2023-02-08T14:22:07.055Z,2.62
2023-02-08T14:40:48.391Z,2.29
2023-02-08T14:43:54.635Z,2.30
2023-02-08T14:47:00.981Z,2.28
2023-02-08T14:50:07.523Z,2.27
2023-02-08T14:53:26.370Z,2.24
2023-02-08T14:56:35.048Z,2.20
2023-02-08T14:59:42.856Z,2.14
2023-02-08T15:02:50.549Z,2.06
2023-02-08T15:06:34.602Z,1.97
2023-02-08T15:09:43.900Z,1.85
2023-02-08T15:12:53.692Z,1.75
2023-02-08T15:16:01.622Z,1.65
2023-02-08T15:19:09.464Z,1.55
2023-02-08T15:22:31.240Z,1.46
2023-02-08T15:25:38.452Z,1.37
2023-02-08T15:28:47.722Z,1.27
2023-02-08T15:31:55.079Z,1.17
2023-02-08T15:35:02.981Z,1.06
2023-02-08T15:38:16.946Z,0.95
2023-02-08T15:41:30.521Z,0.85
2023-02-08T15:44:37.390Z,0.75
2023-02-08T15:47:43.697Z,0.64
2023-02-08T15:50:48.791Z,0.56
2023-02-08T15:53:56.877Z,0.47
2023-02-08T15:57:06.938Z,0.36
2023-02-08T16:00:19.304Z,0.25
2023-02-08T16:03:28.083Z,0.25
2023-02-08T16:06:39.004Z,0.73
2023-02-08T16:09:49.692Z,1.18
2023-02-08T16:12:58.623Z,1.50
2023-02-08T16:16:20.045Z,1.73
2023-02-08T16:19:29.506Z,1.89
2023-02-08T16:22:35.786Z,1.87
2023-02-08T16:25:45.334Z,1.36
2023-02-08T16:28:58.260Z,0.82
2023-02-08T16:32:11.982Z,0.42
2023-02-08T16:35:25.882Z,0.14
2023-02-08T16:38:34.924Z,-0.09
2023-02-08T16:42:16.062Z,-0.29
2023-02-08T16:45:23.693Z,-0.35
2023-02-08T16:48:36.181Z,0.09
2023-02-08T16:51:47.584Z,0.47
2023-02-08T16:54:53.977Z,0.73
2023-02-08T16:58:01.141Z,0.91
2023-02-08T17:01:07.978Z,1.07
2023-02-08T17:04:14.264Z,1.19
2023-02-08T17:07:19.499Z,1.17
2023-02-08T17:10:29.890Z,0.63
2023-02-08T17:13:36.526Z,0.10
2023-02-08T17:16:44.066Z,-0.31
2023-02-08T17:19:50.357Z,-0.65
2023-02-08T17:22:55.398Z,-0.93
2023-02-08T17:26:01.738Z,-1.16
2023-02-08T17:29:06.775Z,-1.38
2023-02-08T17:32:13.042Z,-1.61
2023-02-08T17:35:18.553Z,-1.75
2023-02-08T17:38:24.780Z,-1.36
2023-02-08T17:41:31.030Z,-0.90
2023-02-08T17:44:35.721Z,-0.56
2023-02-08T17:47:42.497Z,-0.32
2023-02-08T17:50:51.168Z,-0.12
2023-02-08T17:53:57.385Z,0.04
2023-02-08T17:57:01.888Z,0.16
2023-02-08T18:00:12.428Z,0.23
2023-02-08T18:03:18.726Z,0.31
2023-02-08T18:06:24.398Z,0.38
2023-02-08T18:09:30.731Z,0.34
2023-02-08T18:12:37.473Z,-0.23
2023-02-08T18:15:44.066Z,-0.90
2023-02-08T18:18:50.663Z,-1.45
2023-02-08T18:21:56.962Z,-1.89
2023-02-08T18:25:01.549Z,-2.27
2023-02-08T18:28:08.472Z,-2.58
2023-02-08T18:31:20.259Z,-2.85
2023-02-08T18:34:26.827Z,-3.10
2023-02-08T18:37:32.183Z,-3.20
2023-02-08T18:40:38.680Z,-2.78
2023-02-08T18:43:45.064Z,-2.37
2023-02-08T18:46:51.363Z,-2.11
2023-02-08T18:49:58.786Z,-1.95
2023-02-08T18:53:05.264Z,-1.81
2023-02-08T18:56:13.751Z,-1.68
2023-02-08T18:59:19.993Z,-1.61
2023-02-08T19:02:26.489Z,-1.60
2023-02-08T19:05:33.120Z,-1.61
2023-02-08T19:08:41.252Z,-1.55
2023-02-08T19:11:47.689Z,-1.46
2023-02-08T19:14:54.037Z,-1.39
2023-02-08T19:18:00.322Z,-1.32
2023-02-08T19:21:08.177Z,-1.29
2023-02-08T19:24:15.737Z,-1.39
2023-02-08T19:27:22.091Z,-1.93
2023-02-08T19:30:28.653Z,-2.63
2023-02-08T19:33:35.040Z,-3.14
2023-02-08T19:36:46.493Z,-3.50
2023-02-08T19:39:52.856Z,-3.81
2023-02-08T19:42:59.230Z,-3.98
2023-02-08T19:46:11.545Z,-3.67
2023-02-08T19:49:18.225Z,-3.36
2023-02-08T19:52:24.506Z,-3.20
2023-02-08T19:55:29.042Z,-3.13
2023-02-08T19:58:36.166Z,-3.06
2023-02-08T20:01:42.580Z,-3.00
2023-02-08T20:04:48.837Z,-2.98
2023-02-08T20:07:53.378Z,-2.90
2023-02-08T20:10:59.649Z,-2.83
2023-02-08T20:14:04.659Z,-2.79
2023-02-08T20:17:10.945Z,-2.77
2023-02-08T20:20:17.201Z,-2.72
2023-02-08T20:23:22.921Z,-2.67
2023-02-08T20:26:28.480Z,-2.69
2023-02-08T20:29:34.975Z,-2.74
2023-02-08T20:32:41.382Z,-2.78
2023-02-08T20:35:47.560Z,-2.85
2023-02-08T20:38:53.002Z,-2.94
2023-02-08T20:41:59.246Z,-2.98
2023-02-08T20:45:06.013Z,-2.98
2023-02-08T20:48:12.124Z,-3.01
2023-02-08T20:51:20.658Z,-3.05
2023-02-08T20:54:27.081Z,-3.11
2023-02-08T20:57:33.333Z,-3.12
2023-02-08T21:00:42.325Z,-3.11
2023-02-08T21:03:49.860Z,-3.09
2023-02-08T21:06:56.142Z,-3.10
2023-02-08T21:10:04.085Z,-3.15
2023-02-08T21:13:10.506Z,-3.19
2023-02-08T21:16:17.437Z,-3.21
2023-02-08T21:19:24.374Z,-3.21
2023-02-08T21:22:30.592Z,-3.20
2023-02-08T21:25:35.115Z,-3.22
2023-02-08T21:28:41.841Z,-3.33
2023-02-08T21:31:51.838Z,-3.38
2023-02-08T21:34:58.188Z,-3.40
2023-02-08T21:38:05.858Z,-3.42
2023-02-08T21:41:14.547Z,-3.42
2023-02-08T21:44:21.342Z,-3.36
2023-02-08T21:47:27.722Z,-3.32
2023-02-08T21:50:51.593Z,-3.42
2023-02-08T21:54:15.094Z,-4.07
2023-02-08T21:57:23.543Z,-4.66
2023-02-08T22:00:29.824Z,-4.70
2023-02-08T22:03:36.121Z,-4.37
2023-02-08T22:06:48.801Z,-4.15
2023-02-08T22:09:55.185Z,-4.05
2023-02-08T22:13:01.771Z,-4.01
2023-02-08T22:16:12.422Z,-3.98
2023-02-08T22:19:18.796Z,-3.92
2023-02-08T22:22:25.353Z,-3.84
2023-02-08T22:25:31.801Z,-3.78
2023-02-08T22:28:38.224Z,-3.75
2023-02-08T22:31:44.656Z,-3.71
2023-02-08T22:34:51.371Z,-3.64
2023-02-08T22:37:57.954Z,-3.62
2023-02-08T22:41:09.923Z,-3.60
2023-02-08T22:44:16.745Z,-3.58
2023-02-08T22:47:23.303Z,-3.57
2023-02-08T22:50:29.618Z,-3.54
2023-02-08T22:53:35.922Z,-3.52
2023-02-08T22:56:42.471Z,-3.50
2023-02-08T22:59:48.880Z,-3.47
2023-02-08T23:02:55.152Z,-3.46
2023-02-08T23:06:01.555Z,-3.54
2023-02-08T23:09:09.061Z,-3.66
2023-02-08T23:12:15.576Z,-3.73
2023-02-08T23:15:22.317Z,-3.75
2023-02-08T23:18:28.776Z,-3.77
2023-02-08T23:21:35.282Z,-3.75
2023-02-08T23:24:41.585Z,-3.75
2023-02-08T23:27:48.746Z,-3.74
2023-02-08T23:30:55.090Z,-3.77
2023-02-08T23:34:02.176Z,-3.80
2023-02-08T23:37:08.390Z,-3.81
2023-02-08T23:40:15.714Z,-3.82
2023-02-08T23:43:21.877Z,-3.89
2023-02-08T23:46:27.421Z,-3.99
2023-02-08T23:49:33.718Z,-4.07
2023-02-08T23:52:40.371Z,-4.15
2023-02-08T23:55:46.594Z,-4.28
2023-02-08T23:58:54.601Z,-4.39
